sensor_id;sensor_type;location;lat;lon;timestamp;P1;durP1;ratioP1;P2;durP2;ratioP2
18653;SDS011;9456;47.824;16.228;2023-11-21T00:00:15;7.30;;;5.17;;
18653;SDS011;9456;47.824;16.228;2023-11-21T00:02:43;5.77;;;4.80;;
18653;SDS011;9456;47.824;16.228;2023-11-21T00:05:11;8.47;;;4.23;;
18653;SDS011;9456;47.824;16.228;2023-11-21T00:07:42;7.47;;;4.67;;
18653;SDS011;9456;47.824;16.228;2023-11-21T00:10:11;6.50;;;4.17;;
18653;SDS011;9456;47.824;16.228;2023-11-21T00:12:38;10.07;;;6.87;;
18653;SDS011;9456;47.824;16.228;2023-11-21T00:15:07;7.67;;;6.90;;
18653;SDS011;9456;47.824;16.228;2023-11-21T00:17:37;9.70;;;7.50;;
18653;SDS011;9456;47.824;16.228;2023-11-21T00:20:06;7.00;;;6.30;;
18653;SDS011;9456;47.824;16.228;2023-11-21T00:22:37;7.03;;;5.90;;
18653;SDS011;9456;47.824;16.228;2023-11-21T00:25:06;9.30;;;7.00;;
18653;SDS011;9456;47.824;16.228;2023-11-21T00:27:34;5.77;;;5.00;;
18653;SDS011;9456;47.824;16.228;2023-11-21T00:30:02;7.03;;;6.00;;
18653;SDS011;9456;47.824;16.228;2023-11-21T00:32:32;6.50;;;5.83;;
18653;SDS011;9456;47.824;16.228;2023-11-21T00:35:00;8.17;;;4.70;;
18653;SDS011;9456;47.824;16.228;2023-11-21T00:37:28;5.00;;;4.50;;
18653;SDS011;9456;47.824;16.228;2023-11-21T00:39:56;4.60;;;4.13;;
18653;SDS011;9456;47.824;16.228;2023-11-21T00:42:24;5.87;;;4.53;;
18653;SDS011;9456;47.824;16.228;2023-11-21T00:44:52;5.43;;;4.43;;
18653;SDS011;9456;47.824;16.228;2023-11-21T00:47:23;6.43;;;5.03;;
18653;SDS011;9456;47.824;16.228;2023-11-21T00:49:51;5.53;;;4.77;;
18653;SDS011;9456;47.824;16.228;2023-11-21T00:52:19;22.53;;;15.53;;
18653;SDS011;9456;47.824;16.228;2023-11-21T00:54:47;15.73;;;11.17;;
18653;SDS011;9456;47.824;16.228;2023-11-21T00:57:15;10.60;;;6.97;;
18653;SDS011;9456;47.824;16.228;2023-11-21T00:59:43;13.43;;;9.40;;
18653;SDS011;9456;47.824;16.228;2023-11-21T01:02:21;14.03;;;10.50;;
18653;SDS011;9456;47.824;16.228;2023-11-21T01:04:51;16.00;;;10.70;;
18653;SDS011;9456;47.824;16.228;2023-11-21T01:07:20;7.17;;;5.07;;
18653;SDS011;9456;47.824;16.228;2023-11-21T01:09:48;7.73;;;6.37;;
18653;SDS011;9456;47.824;16.228;2023-11-21T01:12:16;9.13;;;6.70;;
18653;SDS011;9456;47.824;16.228;2023-11-21T01:14:44;7.10;;;5.53;;
18653;SDS011;9456;47.824;16.228;2023-11-21T01:17:12;7.77;;;6.47;;
18653;SDS011;9456;47.824;16.228;2023-11-21T01:19:40;6.30;;;5.50;;
18653;SDS011;9456;47.824;16.228;2023-11-21T01:22:11;7.00;;;5.77;;
18653;SDS011;9456;47.824;16.228;2023-11-21T01:24:39;8.10;;;5.80;;
18653;SDS011;9456;47.824;16.228;2023-11-21T01:27:07;8.47;;;6.23;;
18653;SDS011;9456;47.824;16.228;2023-11-21T01:29:35;7.23;;;5.93;;
18653;SDS011;9456;47.824;16.228;2023-11-21T01:32:04;7.70;;;5.67;;
18653;SDS011;9456;47.824;16.228;2023-11-21T01:34:32;8.73;;;5.67;;
18653;SDS011;9456;47.824;16.228;2023-11-21T01:37:00;6.40;;;5.07;;
18653;SDS011;9456;47.824;16.228;2023-11-21T01:39:28;5.43;;;4.20;;
18653;SDS011;9456;47.824;16.228;2023-11-21T01:41:56;7.13;;;4.60;;
18653;SDS011;9456;47.824;16.228;2023-11-21T01:44:24;5.50;;;4.77;;
18653;SDS011;9456;47.824;16.228;2023-11-21T01:46:53;5.10;;;4.60;;
18653;SDS011;9456;47.824;16.228;2023-11-21T01:49:21;6.17;;;5.37;;
18653;SDS011;9456;47.824;16.228;2023-11-21T01:51:49;5.73;;;4.87;;
18653;SDS011;9456;47.824;16.228;2023-11-21T01:54:17;6.30;;;5.37;;
18653;SDS011;9456;47.824;16.228;2023-11-21T01:56:45;7.57;;;5.13;;
18653;SDS011;9456;47.824;16.228;2023-11-21T01:59:14;6.13;;;5.27;;
18653;SDS011;9456;47.824;16.228;2023-11-21T02:01:41;5.73;;;4.80;;
18653;SDS011;9456;47.824;16.228;2023-11-21T02:04:10;7.23;;;5.07;;
18653;SDS011;9456;47.824;16.228;2023-11-21T02:06:37;5.53;;;4.97;;
18653;SDS011;9456;47.824;16.228;2023-11-21T02:09:06;7.80;;;5.00;;
18653;SDS011;9456;47.824;16.228;2023-11-21T02:11:34;5.03;;;4.53;;
18653;SDS011;9456;47.824;16.228;2023-11-21T02:14:02;5.33;;;4.70;;
18653;SDS011;9456;47.824;16.228;2023-11-21T02:16:30;5.70;;;5.20;;
18653;SDS011;9456;47.824;16.228;2023-11-21T02:21:37;7.43;;;4.93;;
18653;SDS011;9456;47.824;16.228;2023-11-21T02:24:07;5.77;;;4.40;;
18653;SDS011;9456;47.824;16.228;2023-11-21T02:26:35;5.27;;;4.13;;
18653;SDS011;9456;47.824;16.228;2023-11-21T02:29:03;5.40;;;4.37;;
18653;SDS011;9456;47.824;16.228;2023-11-21T02:31:31;5.47;;;4.90;;
18653;SDS011;9456;47.824;16.228;2023-11-21T02:33:59;6.87;;;5.10;;
18653;SDS011;9456;47.824;16.228;2023-11-21T02:36:27;7.10;;;4.67;;
18653;SDS011;9456;47.824;16.228;2023-11-21T02:38:55;6.47;;;4.90;;
18653;SDS011;9456;47.824;16.228;2023-11-21T02:41:23;5.30;;;4.43;;
18653;SDS011;9456;47.824;16.228;2023-11-21T02:43:51;4.67;;;4.17;;
18653;SDS011;9456;47.824;16.228;2023-11-21T02:46:19;5.90;;;3.97;;
18653;SDS011;9456;47.824;16.228;2023-11-21T02:48:48;5.40;;;4.30;;
18653;SDS011;9456;47.824;16.228;2023-11-21T02:51:16;5.53;;;4.23;;
18653;SDS011;9456;47.824;16.228;2023-11-21T02:53:44;4.13;;;3.73;;
18653;SDS011;9456;47.824;16.228;2023-11-21T02:56:12;6.73;;;4.17;;
18653;SDS011;9456;47.824;16.228;2023-11-21T02:58:41;5.77;;;4.27;;
18653;SDS011;9456;47.824;16.228;2023-11-21T03:01:10;5.13;;;3.83;;
18653;SDS011;9456;47.824;16.228;2023-11-21T03:03:38;6.33;;;3.23;;
18653;SDS011;9456;47.824;16.228;2023-11-21T03:06:06;3.73;;;3.40;;
18653;SDS011;9456;47.824;16.228;2023-11-21T03:08:36;5.30;;;3.20;;
18653;SDS011;9456;47.824;16.228;2023-11-21T03:11:04;5.37;;;3.93;;
18653;SDS011;9456;47.824;16.228;2023-11-21T03:13:32;3.70;;;3.27;;
18653;SDS011;9456;47.824;16.228;2023-11-21T03:16:02;5.93;;;3.50;;
18653;SDS011;9456;47.824;16.228;2023-11-21T03:18:30;5.73;;;3.57;;
18653;SDS011;9456;47.824;16.228;2023-11-21T03:20:58;4.67;;;3.53;;
18653;SDS011;9456;47.824;16.228;2023-11-21T03:23:26;4.27;;;3.83;;
18653;SDS011;9456;47.824;16.228;2023-11-21T03:25:54;6.03;;;3.83;;
18653;SDS011;9456;47.824;16.228;2023-11-21T03:28:22;5.07;;;3.50;;
18653;SDS011;9456;47.824;16.228;2023-11-21T03:30:51;5.17;;;3.43;;
18653;SDS011;9456;47.824;16.228;2023-11-21T03:33:19;3.47;;;3.10;;
18653;SDS011;9456;47.824;16.228;2023-11-21T03:35:47;4.30;;;3.17;;
18653;SDS011;9456;47.824;16.228;2023-11-21T03:38:16;5.20;;;3.37;;
18653;SDS011;9456;47.824;16.228;2023-11-21T03:40:45;3.97;;;3.43;;
18653;SDS011;9456;47.824;16.228;2023-11-21T03:43:13;3.77;;;3.33;;
18653;SDS011;9456;47.824;16.228;2023-11-21T03:45:41;4.23;;;3.50;;
18653;SDS011;9456;47.824;16.228;2023-11-21T03:48:09;5.40;;;3.77;;
18653;SDS011;9456;47.824;16.228;2023-11-21T03:50:37;3.77;;;3.47;;
18653;SDS011;9456;47.824;16.228;2023-11-21T03:53:06;3.73;;;3.07;;
18653;SDS011;9456;47.824;16.228;2023-11-21T03:55:34;5.07;;;3.20;;
18653;SDS011;9456;47.824;16.228;2023-11-21T03:58:02;3.73;;;2.87;;
18653;SDS011;9456;47.824;16.228;2023-11-21T04:00:30;3.60;;;3.30;;
18653;SDS011;9456;47.824;16.228;2023-11-21T04:02:58;4.27;;;3.13;;
18653;SDS011;9456;47.824;16.228;2023-11-21T04:05:26;5.70;;;3.67;;
18653;SDS011;9456;47.824;16.228;2023-11-21T04:07:54;3.80;;;3.30;;
18653;SDS011;9456;47.824;16.228;2023-11-21T04:10:22;3.60;;;3.27;;
18653;SDS011;9456;47.824;16.228;2023-11-21T04:12:50;9.13;;;3.70;;
18653;SDS011;9456;47.824;16.228;2023-11-21T04:15:18;3.77;;;3.30;;
18653;SDS011;9456;47.824;16.228;2023-11-21T04:17:46;4.07;;;3.67;;
18653;SDS011;9456;47.824;16.228;2023-11-21T04:20:14;6.20;;;3.60;;
18653;SDS011;9456;47.824;16.228;2023-11-21T04:22:43;4.80;;;3.90;;
18653;SDS011;9456;47.824;16.228;2023-11-21T04:25:10;5.10;;;4.00;;
18653;SDS011;9456;47.824;16.228;2023-11-21T04:27:39;4.03;;;3.50;;
18653;SDS011;9456;47.824;16.228;2023-11-21T04:30:08;4.40;;;3.50;;
18653;SDS011;9456;47.824;16.228;2023-11-21T04:32:37;6.17;;;3.97;;
18653;SDS011;9456;47.824;16.228;2023-11-21T04:35:06;5.90;;;3.80;;
18653;SDS011;9456;47.824;16.228;2023-11-21T04:37:34;6.40;;;4.00;;
18653;SDS011;9456;47.824;16.228;2023-11-21T04:40:06;5.73;;;4.10;;
18653;SDS011;9456;47.824;16.228;2023-11-21T04:42:35;5.30;;;4.17;;
18653;SDS011;9456;47.824;16.228;2023-11-21T04:45:05;5.37;;;4.60;;
18653;SDS011;9456;47.824;16.228;2023-11-21T04:47:33;7.23;;;5.30;;
18653;SDS011;9456;47.824;16.228;2023-11-21T04:50:01;7.57;;;4.80;;
18653;SDS011;9456;47.824;16.228;2023-11-21T04:52:29;5.47;;;4.33;;
18653;SDS011;9456;47.824;16.228;2023-11-21T04:54:57;6.30;;;3.77;;
18653;SDS011;9456;47.824;16.228;2023-11-21T04:57:25;7.20;;;3.83;;
18653;SDS011;9456;47.824;16.228;2023-11-21T04:59:53;6.13;;;4.30;;
18653;SDS011;9456;47.824;16.228;2023-11-21T05:02:21;8.70;;;4.00;;
18653;SDS011;9456;47.824;16.228;2023-11-21T05:04:49;5.37;;;3.37;;
18653;SDS011;9456;47.824;16.228;2023-11-21T05:07:17;5.07;;;3.50;;
18653;SDS011;9456;47.824;16.228;2023-11-21T05:12:22;4.80;;;3.30;;
18653;SDS011;9456;47.824;16.228;2023-11-21T05:14:51;4.53;;;3.63;;
18653;SDS011;9456;47.824;16.228;2023-11-21T05:17:19;3.80;;;3.30;;
18653;SDS011;9456;47.824;16.228;2023-11-21T05:19:47;4.33;;;3.03;;
18653;SDS011;9456;47.824;16.228;2023-11-21T05:22:15;3.00;;;2.70;;
18653;SDS011;9456;47.824;16.228;2023-11-21T05:24:43;2.90;;;2.70;;
18653;SDS011;9456;47.824;16.228;2023-11-21T05:27:11;3.77;;;2.90;;
18653;SDS011;9456;47.824;16.228;2023-11-21T05:29:39;5.53;;;3.40;;
18653;SDS011;9456;47.824;16.228;2023-11-21T05:32:07;4.37;;;3.27;;
18653;SDS011;9456;47.824;16.228;2023-11-21T05:34:35;4.17;;;3.30;;
18653;SDS011;9456;47.824;16.228;2023-11-21T05:37:05;5.87;;;3.40;;
18653;SDS011;9456;47.824;16.228;2023-11-21T05:39:33;4.63;;;3.90;;
18653;SDS011;9456;47.824;16.228;2023-11-21T05:42:01;6.20;;;3.53;;
18653;SDS011;9456;47.824;16.228;2023-11-21T05:44:29;3.77;;;3.47;;
18653;SDS011;9456;47.824;16.228;2023-11-21T05:46:57;4.00;;;3.30;;
18653;SDS011;9456;47.824;16.228;2023-11-21T05:49:25;5.13;;;3.30;;
18653;SDS011;9456;47.824;16.228;2023-11-21T05:51:53;4.20;;;3.50;;
18653;SDS011;9456;47.824;16.228;2023-11-21T05:54:21;4.50;;;3.10;;
18653;SDS011;9456;47.824;16.228;2023-11-21T05:56:49;4.17;;;3.03;;
18653;SDS011;9456;47.824;16.228;2023-11-21T05:59:17;4.97;;;3.43;;
18653;SDS011;9456;47.824;16.228;2023-11-21T06:01:45;4.13;;;3.40;;
18653;SDS011;9456;47.824;16.228;2023-11-21T06:04:13;7.87;;;4.00;;
18653;SDS011;9456;47.824;16.228;2023-11-21T06:09:18;7.90;;;5.63;;
18653;SDS011;9456;47.824;16.228;2023-11-21T06:11:46;7.97;;;4.80;;
18653;SDS011;9456;47.824;16.228;2023-11-21T06:14:14;8.67;;;4.80;;
18653;SDS011;9456;47.824;16.228;2023-11-21T06:16:42;4.40;;;3.60;;
18653;SDS011;9456;47.824;16.228;2023-11-21T06:19:10;5.50;;;3.47;;
18653;SDS011;9456;47.824;16.228;2023-11-21T06:21:39;3.73;;;2.90;;
18653;SDS011;9456;47.824;16.228;2023-11-21T06:24:07;5.87;;;3.20;;
18653;SDS011;9456;47.824;16.228;2023-11-21T06:26:35;5.43;;;3.13;;
18653;SDS011;9456;47.824;16.228;2023-11-21T06:29:04;5.37;;;3.10;;
18653;SDS011;9456;47.824;16.228;2023-11-21T06:31:32;7.57;;;3.40;;
18653;SDS011;9456;47.824;16.228;2023-11-21T06:34:00;5.23;;;4.73;;
18653;SDS011;9456;47.824;16.228;2023-11-21T06:36:28;6.03;;;5.10;;
18653;SDS011;9456;47.824;16.228;2023-11-21T06:38:56;5.73;;;3.97;;
18653;SDS011;9456;47.824;16.228;2023-11-21T06:41:24;6.27;;;3.80;;
18653;SDS011;9456;47.824;16.228;2023-11-21T06:43:52;6.27;;;3.60;;
18653;SDS011;9456;47.824;16.228;2023-11-21T06:46:20;8.57;;;3.90;;
18653;SDS011;9456;47.824;16.228;2023-11-21T06:48:48;13.80;;;3.93;;
18653;SDS011;9456;47.824;16.228;2023-11-21T06:51:17;9.40;;;4.30;;
18653;SDS011;9456;47.824;16.228;2023-11-21T06:53:44;10.43;;;4.17;;
18653;SDS011;9456;47.824;16.228;2023-11-21T06:56:16;8.17;;;5.93;;
18653;SDS011;9456;47.824;16.228;2023-11-21T06:58:44;10.67;;;6.33;;
18653;SDS011;9456;47.824;16.228;2023-11-21T07:01:13;8.67;;;7.20;;
18653;SDS011;9456;47.824;16.228;2023-11-21T07:03:42;10.93;;;7.93;;
18653;SDS011;9456;47.824;16.228;2023-11-21T07:06:11;10.80;;;6.87;;
18653;SDS011;9456;47.824;16.228;2023-11-21T07:08:39;6.57;;;5.80;;
18653;SDS011;9456;47.824;16.228;2023-11-21T07:11:07;11.83;;;6.80;;
18653;SDS011;9456;47.824;16.228;2023-11-21T07:13:35;7.63;;;4.60;;
18653;SDS011;9456;47.824;16.228;2023-11-21T07:16:04;7.33;;;4.43;;
18653;SDS011;9456;47.824;16.228;2023-11-21T07:18:32;5.00;;;4.00;;
18653;SDS011;9456;47.824;16.228;2023-11-21T07:21:00;5.47;;;3.77;;
18653;SDS011;9456;47.824;16.228;2023-11-21T07:23:28;6.03;;;3.13;;
18653;SDS011;9456;47.824;16.228;2023-11-21T07:25:56;5.03;;;3.53;;
18653;SDS011;9456;47.824;16.228;2023-11-21T07:28:24;4.43;;;3.10;;
18653;SDS011;9456;47.824;16.228;2023-11-21T07:30:53;4.30;;;3.20;;
18653;SDS011;9456;47.824;16.228;2023-11-21T07:33:21;10.07;;;4.53;;
18653;SDS011;9456;47.824;16.228;2023-11-21T07:35:49;14.93;;;9.93;;
18653;SDS011;9456;47.824;16.228;2023-11-21T07:38:17;17.47;;;10.43;;
18653;SDS011;9456;47.824;16.228;2023-11-21T07:40:46;9.67;;;5.57;;
18653;SDS011;9456;47.824;16.228;2023-11-21T07:43:14;10.03;;;7.47;;
18653;SDS011;9456;47.824;16.228;2023-11-21T07:45:42;12.80;;;7.30;;
18653;SDS011;9456;47.824;16.228;2023-11-21T07:48:10;8.67;;;6.90;;
18653;SDS011;9456;47.824;16.228;2023-11-21T07:50:38;12.07;;;7.63;;
18653;SDS011;9456;47.824;16.228;2023-11-21T07:53:06;11.53;;;7.27;;
18653;SDS011;9456;47.824;16.228;2023-11-21T07:55:34;13.23;;;7.77;;
18653;SDS011;9456;47.824;16.228;2023-11-21T07:58:02;9.30;;;7.33;;
18653;SDS011;9456;47.824;16.228;2023-11-21T08:00:34;13.50;;;7.73;;
18653;SDS011;9456;47.824;16.228;2023-11-21T08:03:02;12.13;;;7.23;;
18653;SDS011;9456;47.824;16.228;2023-11-21T08:05:30;15.67;;;6.93;;
18653;SDS011;9456;47.824;16.228;2023-11-21T08:07:58;16.73;;;8.17;;
18653;SDS011;9456;47.824;16.228;2023-11-21T08:13:13;10.77;;;6.77;;
18653;SDS011;9456;47.824;16.228;2023-11-21T08:15:42;19.00;;;7.43;;
18653;SDS011;9456;47.824;16.228;2023-11-21T08:18:10;10.40;;;6.70;;
18653;SDS011;9456;47.824;16.228;2023-11-21T08:20:38;9.97;;;6.40;;
18653;SDS011;9456;47.824;16.228;2023-11-21T08:23:06;11.43;;;6.83;;
18653;SDS011;9456;47.824;16.228;2023-11-21T08:25:34;14.10;;;7.30;;
18653;SDS011;9456;47.824;16.228;2023-11-21T08:28:02;17.40;;;6.67;;
18653;SDS011;9456;47.824;16.228;2023-11-21T08:30:30;13.53;;;6.70;;
18653;SDS011;9456;47.824;16.228;2023-11-21T08:32:58;7.10;;;5.37;;
18653;SDS011;9456;47.824;16.228;2023-11-21T08:35:26;7.63;;;5.20;;
18653;SDS011;9456;47.824;16.228;2023-11-21T08:37:54;10.50;;;6.10;;
18653;SDS011;9456;47.824;16.228;2023-11-21T08:40:22;8.47;;;6.57;;
18653;SDS011;9456;47.824;16.228;2023-11-21T08:42:50;17.30;;;11.80;;
18653;SDS011;9456;47.824;16.228;2023-11-21T08:45:19;20.27;;;11.20;;
18653;SDS011;9456;47.824;16.228;2023-11-21T08:47:47;10.30;;;7.00;;
18653;SDS011;9456;47.824;16.228;2023-11-21T08:50:15;16.80;;;11.17;;
18653;SDS011;9456;47.824;16.228;2023-11-21T08:52:43;15.23;;;9.90;;
18653;SDS011;9456;47.824;16.228;2023-11-21T08:55:11;13.30;;;7.30;;
18653;SDS011;9456;47.824;16.228;2023-11-21T08:57:44;12.17;;;6.40;;
18653;SDS011;9456;47.824;16.228;2023-11-21T09:00:13;10.50;;;7.83;;
18653;SDS011;9456;47.824;16.228;2023-11-21T09:02:41;14.30;;;7.20;;
18653;SDS011;9456;47.824;16.228;2023-11-21T09:05:09;13.53;;;7.67;;
18653;SDS011;9456;47.824;16.228;2023-11-21T09:07:38;16.03;;;6.90;;
18653;SDS011;9456;47.824;16.228;2023-11-21T09:10:06;11.63;;;7.60;;
18653;SDS011;9456;47.824;16.228;2023-11-21T09:12:34;15.07;;;7.60;;
18653;SDS011;9456;47.824;16.228;2023-11-21T09:15:05;9.63;;;6.37;;
18653;SDS011;9456;47.824;16.228;2023-11-21T09:17:33;22.20;;;7.50;;
18653;SDS011;9456;47.824;16.228;2023-11-21T09:20:02;9.80;;;6.53;;
18653;SDS011;9456;47.824;16.228;2023-11-21T09:22:30;10.80;;;6.77;;
18653;SDS011;9456;47.824;16.228;2023-11-21T09:24:58;13.03;;;6.50;;
18653;SDS011;9456;47.824;16.228;2023-11-21T09:27:25;13.07;;;7.90;;
18653;SDS011;9456;47.824;16.228;2023-11-21T09:29:53;12.60;;;8.53;;
18653;SDS011;9456;47.824;16.228;2023-11-21T09:32:22;11.63;;;7.33;;
18653;SDS011;9456;47.824;16.228;2023-11-21T09:34:50;6.97;;;5.00;;
18653;SDS011;9456;47.824;16.228;2023-11-21T09:37:18;10.83;;;4.33;;
18653;SDS011;9456;47.824;16.228;2023-11-21T09:39:46;8.03;;;4.83;;
18653;SDS011;9456;47.824;16.228;2023-11-21T09:42:17;5.90;;;4.60;;
18653;SDS011;9456;47.824;16.228;2023-11-21T09:44:45;6.90;;;4.53;;
18653;SDS011;9456;47.824;16.228;2023-11-21T09:47:14;8.00;;;4.93;;
18653;SDS011;9456;47.824;16.228;2023-11-21T09:49:40;13.43;;;4.20;;
18653;SDS011;9456;47.824;16.228;2023-11-21T09:52:08;10.93;;;6.43;;
18653;SDS011;9456;47.824;16.228;2023-11-21T09:54:36;12.47;;;9.23;;
18653;SDS011;9456;47.824;16.228;2023-11-21T09:57:05;8.97;;;7.07;;
18653;SDS011;9456;47.824;16.228;2023-11-21T09:59:33;9.87;;;5.50;;
18653;SDS011;9456;47.824;16.228;2023-11-21T10:02:00;4.87;;;3.53;;
18653;SDS011;9456;47.824;16.228;2023-11-21T10:04:29;9.63;;;5.37;;
18653;SDS011;9456;47.824;16.228;2023-11-21T10:06:57;6.40;;;3.23;;
18653;SDS011;9456;47.824;16.228;2023-11-21T10:09:25;5.17;;;2.17;;
18653;SDS011;9456;47.824;16.228;2023-11-21T10:11:53;2.50;;;2.07;;
18653;SDS011;9456;47.824;16.228;2023-11-21T10:14:21;6.53;;;2.60;;
18653;SDS011;9456;47.824;16.228;2023-11-21T10:16:49;3.17;;;1.80;;
18653;SDS011;9456;47.824;16.228;2023-11-21T10:19:18;3.60;;;2.80;;
18653;SDS011;9456;47.824;16.228;2023-11-21T10:21:46;4.73;;;2.67;;
18653;SDS011;9456;47.824;16.228;2023-11-21T10:24:14;4.67;;;1.90;;
18653;SDS011;9456;47.824;16.228;2023-11-21T10:26:42;5.00;;;2.40;;
18653;SDS011;9456;47.824;16.228;2023-11-21T10:29:10;3.10;;;2.60;;
18653;SDS011;9456;47.824;16.228;2023-11-21T10:31:38;2.73;;;2.50;;
18653;SDS011;9456;47.824;16.228;2023-11-21T10:34:16;4.80;;;1.80;;
18653;SDS011;9456;47.824;16.228;2023-11-21T10:36:44;2.47;;;1.40;;
18653;SDS011;9456;47.824;16.228;2023-11-21T10:39:14;3.50;;;1.30;;
18653;SDS011;9456;47.824;16.228;2023-11-21T10:41:44;0.73;;;0.70;;
18653;SDS011;9456;47.824;16.228;2023-11-21T10:44:14;2.77;;;1.50;;
18653;SDS011;9456;47.824;16.228;2023-11-21T10:46:43;3.60;;;1.40;;
18653;SDS011;9456;47.824;16.228;2023-11-21T10:49:11;3.43;;;1.07;;
18653;SDS011;9456;47.824;16.228;2023-11-21T10:51:42;3.53;;;1.20;;
18653;SDS011;9456;47.824;16.228;2023-11-21T10:54:09;0.70;;;0.70;;
18653;SDS011;9456;47.824;16.228;2023-11-21T10:56:37;7.83;;;1.47;;
18653;SDS011;9456;47.824;16.228;2023-11-21T10:59:05;1.27;;;0.90;;
18653;SDS011;9456;47.824;16.228;2023-11-21T11:01:33;1.50;;;0.90;;
18653;SDS011;9456;47.824;16.228;2023-11-21T11:04:03;4.70;;;1.20;;
18653;SDS011;9456;47.824;16.228;2023-11-21T11:06:31;0.80;;;0.80;;
18653;SDS011;9456;47.824;16.228;2023-11-21T11:09:00;0.53;;;0.50;;
18653;SDS011;9456;47.824;16.228;2023-11-21T11:11:29;0.70;;;0.67;;
18653;SDS011;9456;47.824;16.228;2023-11-21T11:14:00;0.93;;;0.63;;
18653;SDS011;9456;47.824;16.228;2023-11-21T11:16:28;0.80;;;0.80;;
18653;SDS011;9456;47.824;16.228;2023-11-21T11:18:56;1.10;;;0.73;;
18653;SDS011;9456;47.824;16.228;2023-11-21T11:21:27;1.30;;;0.63;;
18653;SDS011;9456;47.824;16.228;2023-11-21T11:24:01;0.40;;;0.40;;
18653;SDS011;9456;47.824;16.228;2023-11-21T11:26:32;0.50;;;0.50;;
18653;SDS011;9456;47.824;16.228;2023-11-21T11:29:00;1.07;;;0.50;;
18653;SDS011;9456;47.824;16.228;2023-11-21T11:31:30;0.37;;;0.33;;
18653;SDS011;9456;47.824;16.228;2023-11-21T11:33:57;1.03;;;0.57;;
18653;SDS011;9456;47.824;16.228;2023-11-21T11:36:28;0.30;;;0.30;;
18653;SDS011;9456;47.824;16.228;2023-11-21T11:38:54;1.00;;;0.73;;
18653;SDS011;9456;47.824;16.228;2023-11-21T11:41:25;1.50;;;0.60;;
18653;SDS011;9456;47.824;16.228;2023-11-21T11:43:54;0.23;;;0.23;;
18653;SDS011;9456;47.824;16.228;2023-11-21T11:46:23;0.50;;;0.50;;
18653;SDS011;9456;47.824;16.228;2023-11-21T11:48:56;0.33;;;0.30;;
18653;SDS011;9456;47.824;16.228;2023-11-21T11:51:24;0.27;;;0.20;;
18653;SDS011;9456;47.824;16.228;2023-11-21T11:53:52;0.27;;;0.27;;
18653;SDS011;9456;47.824;16.228;2023-11-21T11:56:24;0.30;;;0.30;;
18653;SDS011;9456;47.824;16.228;2023-11-21T11:58:53;0.63;;;0.50;;
18653;SDS011;9456;47.824;16.228;2023-11-21T12:01:21;1.23;;;0.70;;
18653;SDS011;9456;47.824;16.228;2023-11-21T12:06:35;1.17;;;0.30;;
18653;SDS011;9456;47.824;16.228;2023-11-21T12:09:04;0.90;;;0.43;;
18653;SDS011;9456;47.824;16.228;2023-11-21T12:11:32;0.40;;;0.40;;
18653;SDS011;9456;47.824;16.228;2023-11-21T12:14:00;0.70;;;0.40;;
18653;SDS011;9456;47.824;16.228;2023-11-21T12:16:28;0.40;;;0.27;;
18653;SDS011;9456;47.824;16.228;2023-11-21T12:18:56;0.30;;;0.30;;
18653;SDS011;9456;47.824;16.228;2023-11-21T12:21:24;0.70;;;0.43;;
18653;SDS011;9456;47.824;16.228;2023-11-21T12:23:52;0.47;;;0.47;;
18653;SDS011;9456;47.824;16.228;2023-11-21T12:26:23;0.43;;;0.43;;
18653;SDS011;9456;47.824;16.228;2023-11-21T12:28:52;0.60;;;0.60;;
18653;SDS011;9456;47.824;16.228;2023-11-21T12:31:21;0.40;;;0.40;;
18653;SDS011;9456;47.824;16.228;2023-11-21T12:33:49;0.40;;;0.40;;
18653;SDS011;9456;47.824;16.228;2023-11-21T12:36:17;0.50;;;0.40;;
18653;SDS011;9456;47.824;16.228;2023-11-21T12:38:45;1.00;;;0.70;;
18653;SDS011;9456;47.824;16.228;2023-11-21T12:41:13;0.40;;;0.40;;
18653;SDS011;9456;47.824;16.228;2023-11-21T12:43:41;0.50;;;0.50;;
18653;SDS011;9456;47.824;16.228;2023-11-21T12:46:09;1.97;;;0.60;;
18653;SDS011;9456;47.824;16.228;2023-11-21T12:48:38;0.60;;;0.60;;
18653;SDS011;9456;47.824;16.228;2023-11-21T12:51:07;0.97;;;0.63;;
18653;SDS011;9456;47.824;16.228;2023-11-21T12:53:35;0.67;;;0.57;;
18653;SDS011;9456;47.824;16.228;2023-11-21T12:56:05;2.13;;;0.67;;
18653;SDS011;9456;47.824;16.228;2023-11-21T12:58:32;2.80;;;2.20;;
18653;SDS011;9456;47.824;16.228;2023-11-21T13:01:01;13.83;;;10.67;;
18653;SDS011;9456;47.824;16.228;2023-11-21T13:03:28;10.77;;;8.50;;
18653;SDS011;9456;47.824;16.228;2023-11-21T13:05:56;2.97;;;1.40;;
18653;SDS011;9456;47.824;16.228;2023-11-21T13:08:25;0.97;;;0.93;;
18653;SDS011;9456;47.824;16.228;2023-11-21T13:10:53;4.40;;;1.20;;
18653;SDS011;9456;47.824;16.228;2023-11-21T13:13:21;3.47;;;1.40;;
18653;SDS011;9456;47.824;16.228;2023-11-21T13:15:49;1.63;;;0.90;;
18653;SDS011;9456;47.824;16.228;2023-11-21T13:18:17;1.30;;;1.20;;
18653;SDS011;9456;47.824;16.228;2023-11-21T13:20:45;1.33;;;0.90;;
18653;SDS011;9456;47.824;16.228;2023-11-21T13:23:13;2.27;;;0.90;;
18653;SDS011;9456;47.824;16.228;2023-11-21T13:25:41;0.73;;;0.50;;
18653;SDS011;9456;47.824;16.228;2023-11-21T13:28:09;1.83;;;0.60;;
18653;SDS011;9456;47.824;16.228;2023-11-21T13:30:38;1.50;;;0.90;;
18653;SDS011;9456;47.824;16.228;2023-11-21T13:33:06;1.27;;;1.00;;
18653;SDS011;9456;47.824;16.228;2023-11-21T13:35:34;2.63;;;1.40;;
18653;SDS011;9456;47.824;16.228;2023-11-21T13:38:04;2.80;;;1.93;;
18653;SDS011;9456;47.824;16.228;2023-11-21T13:40:32;1.27;;;0.87;;
18653;SDS011;9456;47.824;16.228;2023-11-21T13:45:36;0.60;;;0.60;;
18653;SDS011;9456;47.824;16.228;2023-11-21T13:48:05;0.70;;;0.70;;
18653;SDS011;9456;47.824;16.228;2023-11-21T13:50:33;1.53;;;0.70;;
18653;SDS011;9456;47.824;16.228;2023-11-21T13:53:01;0.80;;;0.80;;
18653;SDS011;9456;47.824;16.228;2023-11-21T13:55:29;1.10;;;0.73;;
18653;SDS011;9456;47.824;16.228;2023-11-21T13:57:57;0.97;;;0.40;;
18653;SDS011;9456;47.824;16.228;2023-11-21T14:00:25;0.80;;;0.60;;
18653;SDS011;9456;47.824;16.228;2023-11-21T14:03:12;0.60;;;0.60;;
18653;SDS011;9456;47.824;16.228;2023-11-21T14:05:45;0.40;;;0.40;;
18653;SDS011;9456;47.824;16.228;2023-11-21T14:08:14;1.93;;;0.97;;
18653;SDS011;9456;47.824;16.228;2023-11-21T14:10:44;0.40;;;0.40;;
18653;SDS011;9456;47.824;16.228;2023-11-21T14:13:12;0.50;;;0.50;;
18653;SDS011;9456;47.824;16.228;2023-11-21T14:15:40;0.40;;;0.40;;
18653;SDS011;9456;47.824;16.228;2023-11-21T14:18:09;0.60;;;0.60;;
18653;SDS011;9456;47.824;16.228;2023-11-21T14:20:38;0.53;;;0.53;;
18653;SDS011;9456;47.824;16.228;2023-11-21T14:23:06;5.20;;;0.63;;
18653;SDS011;9456;47.824;16.228;2023-11-21T14:25:34;0.50;;;0.50;;
18653;SDS011;9456;47.824;16.228;2023-11-21T14:28:02;0.90;;;0.90;;
18653;SDS011;9456;47.824;16.228;2023-11-21T14:30:29;1.17;;;1.17;;
18653;SDS011;9456;47.824;16.228;2023-11-21T14:32:59;1.30;;;0.90;;
18653;SDS011;9456;47.824;16.228;2023-11-21T14:35:27;1.30;;;0.70;;
18653;SDS011;9456;47.824;16.228;2023-11-21T14:37:55;0.97;;;0.50;;
18653;SDS011;9456;47.824;16.228;2023-11-21T14:40:23;1.20;;;1.10;;
18653;SDS011;9456;47.824;16.228;2023-11-21T14:42:51;2.20;;;0.63;;
18653;SDS011;9456;47.824;16.228;2023-11-21T14:45:20;3.30;;;2.40;;
18653;SDS011;9456;47.824;16.228;2023-11-21T14:47:48;2.20;;;1.63;;
18653;SDS011;9456;47.824;16.228;2023-11-21T14:50:16;4.17;;;1.10;;
18653;SDS011;9456;47.824;16.228;2023-11-21T14:53:05;1.43;;;1.00;;
18653;SDS011;9456;47.824;16.228;2023-11-21T14:55:33;1.80;;;1.70;;
18653;SDS011;9456;47.824;16.228;2023-11-21T14:58:01;5.50;;;3.10;;
18653;SDS011;9456;47.824;16.228;2023-11-21T15:00:29;2.70;;;2.50;;
18653;SDS011;9456;47.824;16.228;2023-11-21T15:03:08;1.77;;;1.63;;
18653;SDS011;9456;47.824;16.228;2023-11-21T15:05:36;1.37;;;1.20;;
18653;SDS011;9456;47.824;16.228;2023-11-21T15:08:05;1.67;;;1.07;;